createdAt,value
2018-12-27T00:01:45.022Z,73.41
2018-12-27T00:04:31.996Z,73.36
2018-12-27T00:09:45.136Z,73.14
2018-12-27T00:12:35.133Z,73.20
2018-12-27T00:15:16.927Z,73.13
2018-12-27T00:18:08.743Z,73.10
2018-12-27T00:20:58.342Z,73.02
2018-12-27T00:24:15.066Z,72.94
2018-12-27T00:26:47.709Z,73.09
2018-12-27T00:29:18.051Z,73.30
2018-12-27T00:31:53.372Z,73.16
2018-12-27T00:34:42.089Z,73.47
2018-12-27T00:37:42.698Z,73.51
2018-12-27T00:40:25.031Z,73.51
2018-12-27T00:46:04.697Z,73.34
2018-12-27T00:49:13.967Z,73.14
2018-12-27T00:51:54.397Z,73.17
2018-12-27T00:54:36.148Z,73.01
2018-12-27T00:57:17.171Z,73.01
2018-12-27T00:59:47.889Z,72.88
2018-12-27T01:02:57.050Z,72.93
2018-12-27T01:05:27.204Z,72.89
2018-12-27T01:13:40.445Z,72.99
2018-12-27T01:19:24.421Z,73.03
2018-12-27T01:22:33.527Z,73.26
2018-12-27T01:25:33.403Z,73.32
2018-12-27T01:31:05.949Z,73.62
2018-12-27T01:33:46.645Z,73.27
2018-12-27T01:39:33.684Z,73.37
2018-12-27T01:45:07.592Z,73.53
2018-12-27T01:47:40.097Z,73.50
2018-12-27T01:50:29.194Z,73.50
2018-12-27T01:55:42.575Z,73.50
2018-12-27T01:58:31.799Z,73.88
2018-12-27T02:03:46.609Z,73.88
2018-12-27T02:06:36.900Z,73.86
2018-12-27T02:09:07.051Z,74.21
2018-12-27T02:11:38.327Z,74.21
2018-12-27T02:14:27.321Z,74.07
2018-12-27T02:17:18.237Z,74.18
2018-12-27T02:23:10.587Z,74.26
2018-12-27T02:25:59.425Z,74.43
2018-12-27T02:28:40.330Z,74.43
2018-12-27T02:31:21.419Z,74.18
2018-12-27T02:33:51.893Z,74.00
2018-12-27T02:36:22.043Z,74.00
2018-12-27T02:39:11.230Z,74.71
2018-12-27T02:45:09.213Z,74.35
2018-12-27T02:47:49.524Z,74.43
2018-12-27T02:50:30.418Z,74.59
2018-12-27T02:53:30.388Z,74.50
2018-12-27T02:56:11.017Z,74.44
2018-12-27T02:58:41.369Z,74.01
2018-12-27T03:01:30.292Z,74.10
2018-12-27T03:04:11.381Z,74.10
2018-12-27T03:10:21.761Z,73.95
2018-12-27T03:13:31.597Z,73.64
2018-12-27T03:16:14.469Z,73.62
2018-12-27T03:18:56.721Z,73.47
2018-12-27T03:21:38.138Z,73.47
2018-12-27T03:27:36.302Z,73.72
2018-12-27T03:30:06.878Z,73.85
2018-12-27T03:33:16.154Z,73.88
2018-12-27T03:36:18.107Z,74.03
2018-12-27T03:38:58.863Z,74.03
2018-12-27T03:44:31.768Z,73.88
2018-12-27T03:47:20.630Z,74.08
2018-12-27T03:49:51.300Z,73.82
2018-12-27T03:52:51.847Z,74.33
2018-12-27T03:55:33.050Z,74.33
2018-12-27T03:58:42.040Z,74.12
2018-12-27T04:01:30.958Z,74.32
2018-12-27T04:04:12.317Z,75.02
2018-12-27T04:06:53.690Z,74.24
2018-12-27T04:09:35.169Z,74.24
2018-12-27T04:12:44.169Z,74.54
2018-12-27T04:15:33.081Z,74.77
2018-12-27T04:18:42.069Z,74.77
2018-12-27T04:21:50.126Z,74.36
2018-12-27T04:24:59.063Z,74.40
2018-12-27T04:27:47.988Z,74.35
2018-12-27T04:30:29.465Z,74.35
2018-12-27T04:33:11.069Z,74.16
2018-12-27T04:36:12.003Z,73.85
2018-12-27T04:44:57.355Z,73.89
2018-12-27T04:47:28.241Z,73.71
2018-12-27T04:50:36.054Z,73.97
2018-12-27T04:53:06.398Z,73.97
2018-12-27T04:55:36.794Z,74.05
2018-12-27T04:58:27.523Z,74.08
2018-12-27T05:00:57.778Z,74.03
2018-12-27T05:03:47.663Z,73.89
2018-12-27T05:06:29.102Z,73.85
2018-12-27T05:09:09.979Z,73.85
2018-12-27T05:14:40.871Z,74.46
2018-12-27T05:17:22.575Z,74.46
2018-12-27T05:19:54.169Z,74.26
2018-12-27T05:22:43.475Z,74.62
2018-12-27T05:28:32.612Z,74.59
2018-12-27T05:31:13.496Z,74.59
2018-12-27T05:33:54.750Z,74.67
2018-12-27T05:36:55.652Z,74.67
2018-12-27T05:39:35.851Z,75.23
2018-12-27T05:42:06.175Z,75.23
2018-12-27T05:45:15.978Z,74.92
2018-12-27T05:47:46.454Z,75.12
2018-12-27T05:50:36.467Z,75.12
2018-12-27T05:53:06.427Z,75.58
2018-12-27T05:55:36.564Z,76.25
2018-12-27T05:58:18.005Z,76.51
2018-12-27T06:04:33.750Z,76.62
2018-12-27T06:07:00.062Z,76.64
2018-12-27T06:09:34.085Z,76.61
2018-12-27T06:12:23.057Z,76.73
2018-12-27T06:15:13.910Z,76.85
2018-12-27T06:20:37.912Z,76.95
2018-12-27T06:26:37.406Z,76.78
2018-12-27T06:29:29.075Z,76.84
2018-12-27T06:32:18.150Z,76.72
2018-12-27T06:35:08.438Z,76.63
2018-12-27T06:40:47.709Z,76.50
2018-12-27T06:46:00.198Z,76.87
2018-12-27T06:48:30.089Z,77.00
2018-12-27T06:51:00.173Z,77.13
2018-12-27T06:53:49.063Z,77.32
2018-12-27T06:56:19.566Z,77.56
2018-12-27T06:58:49.859Z,77.76
2018-12-27T07:01:30.234Z,77.75
2018-12-27T07:04:01.270Z,77.75
2018-12-27T07:07:10.329Z,77.74
2018-12-27T07:09:41.160Z,77.65
2018-12-27T07:12:30.093Z,77.57
2018-12-27T07:15:03.990Z,77.51
2018-12-27T07:17:34.849Z,77.40
2018-12-27T07:20:05.153Z,77.34
2018-12-27T07:22:36.443Z,77.33
2018-12-27T07:34:03.099Z,77.62
2018-12-27T07:37:11.943Z,77.93
2018-12-27T07:39:54.119Z,78.36
2018-12-27T07:42:24.318Z,78.66
2018-12-27T07:48:17.715Z,78.96
2018-12-27T07:51:00.703Z,78.98
2018-12-27T07:56:33.686Z,79.44
2018-12-27T07:59:22.708Z,79.46
2018-12-27T08:11:22.351Z,79.08
2018-12-27T08:14:03.765Z,79.06
2018-12-27T08:19:58.448Z,79.19
2018-12-27T08:22:28.917Z,79.15
2018-12-27T08:25:00.159Z,79.19
2018-12-27T08:27:30.206Z,79.29
2018-12-27T08:33:13.078Z,79.07
2018-12-27T08:35:55.224Z,79.07
2018-12-27T08:38:37.608Z,78.99
2018-12-27T08:41:20.256Z,78.86
2018-12-27T08:44:29.253Z,78.71
2018-12-27T08:50:00.172Z,78.42
2018-12-27T08:52:59.872Z,78.38
2018-12-27T08:58:43.286Z,78.25
2018-12-27T09:01:24.909Z,78.08
2018-12-27T09:04:14.947Z,77.92
2018-12-27T09:06:52.571Z,78.07
2018-12-27T09:09:23.549Z,78.02
2018-12-27T09:11:53.863Z,77.93
2018-12-27T09:14:24.401Z,77.95
2018-12-27T09:16:59.083Z,77.88
2018-12-27T09:19:30.002Z,77.73
2018-12-27T09:22:00.637Z,77.72
2018-12-27T09:24:34.191Z,77.67
2018-12-27T09:27:07.394Z,77.56
2018-12-27T09:29:56.577Z,77.44
2018-12-27T09:32:46.473Z,77.13
2018-12-27T09:38:58.550Z,77.21
2018-12-27T09:41:42.075Z,77.24
2018-12-27T09:44:23.498Z,77.06
2018-12-27T09:46:53.527Z,76.83
2018-12-27T09:49:23.619Z,76.56
2018-12-27T09:52:02.294Z,76.37
2018-12-27T09:54:30.888Z,76.25
2018-12-27T09:57:00.873Z,76.08
2018-12-27T09:59:30.636Z,75.92
2018-12-27T10:02:40.056Z,75.67
2018-12-27T10:05:23.139Z,75.47
2018-12-27T10:08:04.719Z,75.24
2018-12-27T10:10:46.441Z,75.04
2018-12-27T10:13:28.134Z,74.78
2018-12-27T10:16:12.739Z,74.45
2018-12-27T10:18:54.970Z,74.10
2018-12-27T10:21:37.149Z,73.89
2018-12-27T10:27:28.192Z,73.71
2018-12-27T10:30:10.172Z,73.41
2018-12-27T10:32:42.937Z,72.48
2018-12-27T10:35:13.189Z,72.48
2018-12-27T10:37:43.471Z,71.11
2018-12-27T10:40:14.068Z,71.13
2018-12-27T10:43:03.091Z,71.13
2018-12-27T10:45:53.081Z,70.94
2018-12-27T10:48:24.063Z,70.34
2018-12-27T10:50:54.487Z,69.29
2018-12-27T10:53:25.216Z,68.62
2018-12-27T10:55:58.049Z,68.11
2018-12-27T10:58:38.949Z,67.55
2018-12-27T11:01:20.057Z,67.23
2018-12-27T11:06:44.730Z,66.76
2018-12-27T11:09:28.747Z,66.59
2018-12-27T11:11:58.812Z,66.46
2018-12-27T11:14:47.980Z,66.36
2018-12-27T11:20:37.813Z,65.64
2018-12-27T11:23:46.941Z,65.56
2018-12-27T11:26:36.398Z,65.46
2018-12-27T11:32:31.614Z,65.29
2018-12-27T11:35:02.823Z,64.94
2018-12-27T11:37:51.949Z,64.39
2018-12-27T11:40:41.100Z,64.29
2018-12-27T11:43:22.288Z,64.03
2018-12-27T11:46:12.841Z,63.81
2018-12-27T11:48:46.028Z,63.83
2018-12-27T11:51:16.993Z,63.81
2018-12-27T11:53:47.337Z,63.51
2018-12-27T11:56:20.086Z,63.22
2018-12-27T11:58:50.554Z,62.80
2018-12-27T12:01:20.607Z,62.58
2018-12-27T12:04:10.469Z,62.42
2018-12-27T12:06:41.121Z,62.11
2018-12-27T12:09:22.792Z,61.93
2018-12-27T12:11:55.336Z,61.68
2018-12-27T12:14:27.773Z,61.48
2018-12-27T12:17:16.917Z,61.21
2018-12-27T12:19:59.968Z,61.10
2018-12-27T12:22:41.086Z,60.55
2018-12-27T12:25:52.382Z,60.40
2018-12-27T12:28:43.017Z,60.12
2018-12-27T12:31:15.036Z,59.99
2018-12-27T12:33:46.014Z,59.82
2018-12-27T12:36:18.729Z,59.70
2018-12-27T12:38:49.006Z,59.29
2018-12-27T12:41:27.093Z,59.08
2018-12-27T12:43:59.028Z,59.10
2018-12-27T12:46:30.097Z,58.93
2018-12-27T12:49:01.554Z,58.86
2018-12-27T12:51:32.068Z,59.33
2018-12-27T12:57:07.896Z,59.38
2018-12-27T12:59:49.315Z,59.21
2018-12-27T13:02:49.745Z,59.35
2018-12-27T13:05:31.029Z,59.43
2018-12-27T13:10:55.579Z,59.65
2018-12-27T13:13:55.926Z,59.69
2018-12-27T13:16:57.706Z,59.61
2018-12-27T13:19:51.003Z,59.47
2018-12-27T13:22:51.146Z,59.66
2018-12-27T13:25:52.090Z,59.85
2018-12-27T13:28:35.379Z,59.89
2018-12-27T13:34:06.301Z,60.14
2018-12-27T13:36:49.980Z,60.28
2018-12-27T13:39:31.735Z,60.43
2018-12-27T13:42:21.816Z,60.53
2018-12-27T13:45:30.050Z,60.56
2018-12-27T13:48:39.092Z,60.50
2018-12-27T13:51:28.290Z,60.52
2018-12-27T13:54:37.244Z,60.60
2018-12-27T13:57:26.231Z,60.51
2018-12-27T14:00:11.038Z,60.41
2018-12-27T14:02:41.236Z,60.30
2018-12-27T14:05:30.253Z,60.40
2018-12-27T14:08:00.563Z,60.45
2018-12-27T14:10:31.266Z,60.79
2018-12-27T14:13:02.545Z,60.96
2018-12-27T14:15:32.574Z,61.19
2018-12-27T14:18:06.322Z,61.26
2018-12-27T14:20:36.251Z,61.41
2018-12-27T14:23:06.904Z,61.65
2018-12-27T14:25:36.819Z,61.77
2018-12-27T14:28:08.083Z,61.80
2018-12-27T14:30:38.306Z,61.82
2018-12-27T14:33:09.920Z,61.86
2018-12-27T14:35:41.022Z,61.97
2018-12-27T14:38:11.985Z,62.25
2018-12-27T14:40:42.244Z,62.44
2018-12-27T14:43:52.162Z,62.71
2018-12-27T14:49:48.943Z,63.39
2018-12-27T14:52:31.256Z,63.78
2018-12-27T14:55:01.400Z,64.07
2018-12-27T14:58:10.700Z,64.20
2018-12-27T15:01:01.891Z,64.41
2018-12-27T15:03:32.543Z,64.66
2018-12-27T15:06:06.772Z,64.84
2018-12-27T15:08:38.417Z,65.05
2018-12-27T15:11:30.742Z,65.08
2018-12-27T15:14:05.436Z,65.21
2018-12-27T15:16:38.161Z,65.45
2018-12-27T15:19:10.093Z,65.56
2018-12-27T15:21:41.226Z,65.79
2018-12-27T15:24:11.710Z,65.94
2018-12-27T15:26:43.819Z,66.06
2018-12-27T15:29:14.846Z,66.12
2018-12-27T15:31:48.979Z,66.26
2018-12-27T15:34:27.504Z,66.26
2018-12-27T15:43:14.557Z,66.11
2018-12-27T15:46:00.609Z,65.93
2018-12-27T15:48:45.349Z,65.98
2018-12-27T15:54:16.332Z,65.87
2018-12-27T15:59:39.497Z,66.06
2018-12-27T16:02:23.747Z,66.19
2018-12-27T16:05:06.620Z,66.28
2018-12-27T16:07:39.225Z,66.28
2018-12-27T16:10:11.450Z,66.25
2018-12-27T16:12:43.494Z,66.29
2018-12-27T16:15:23.729Z,66.23
2018-12-27T16:17:55.691Z,66.20
2018-12-27T16:20:31.465Z,66.30
2018-12-27T16:23:04.787Z,66.39
2018-12-27T16:25:37.718Z,66.64
2018-12-27T16:28:08.380Z,66.76
2018-12-27T16:30:43.451Z,66.71
2018-12-27T16:33:16.355Z,66.80
2018-12-27T16:35:49.981Z,66.73
2018-12-27T16:38:20.828Z,66.88
2018-12-27T16:40:52.796Z,66.92
2018-12-27T16:43:25.845Z,67.13
2018-12-27T16:45:56.516Z,67.55
2018-12-27T16:48:26.729Z,67.55
2018-12-27T16:50:59.013Z,67.26
2018-12-27T16:53:31.466Z,67.18
2018-12-27T16:56:08.001Z,67.15
2018-12-27T16:58:50.372Z,67.07
2018-12-27T17:01:21.818Z,67.07
2018-12-27T17:03:53.487Z,67.13
2018-12-27T17:06:29.870Z,67.16
2018-12-27T17:09:06.523Z,67.12
2018-12-27T17:11:40.744Z,67.26
2018-12-27T17:14:13.750Z,67.33
2018-12-27T17:16:45.237Z,67.38
2018-12-27T17:19:15.909Z,67.53
2018-12-27T17:21:46.944Z,67.76
2018-12-27T17:24:18.031Z,67.90
2018-12-27T17:26:49.926Z,67.90
2018-12-27T17:29:24.742Z,67.69
2018-12-27T17:31:55.173Z,67.72
2018-12-27T17:34:26.093Z,67.77
2018-12-27T17:36:56.667Z,67.85
2018-12-27T17:39:29.896Z,67.83
2018-12-27T17:42:02.515Z,67.85
2018-12-27T17:44:33.207Z,67.84
2018-12-27T17:47:04.719Z,67.90
2018-12-27T17:49:39.079Z,68.01
2018-12-27T17:52:09.433Z,67.93
2018-12-27T17:54:39.361Z,68.26
2018-12-27T17:57:09.852Z,68.48
2018-12-27T17:59:43.262Z,68.48
2018-12-27T18:02:14.457Z,68.48
2018-12-27T18:04:46.827Z,68.37
2018-12-27T18:07:17.545Z,68.25
2018-12-27T18:13:16.350Z,68.34
2018-12-27T18:15:49.682Z,68.41
2018-12-27T18:18:22.565Z,68.04
2018-12-27T18:20:57.379Z,68.04
2018-12-27T18:23:27.444Z,68.48
2018-12-27T18:26:39.941Z,68.33
2018-12-27T18:29:29.200Z,68.17
2018-12-27T18:32:38.241Z,68.29
2018-12-27T18:35:42.814Z,68.05
2018-12-27T18:38:12.949Z,68.04
2018-12-27T18:40:43.473Z,68.04
2018-12-27T18:43:14.712Z,68.06
2018-12-27T18:49:05.373Z,67.93
2018-12-27T18:52:15.718Z,67.89
2018-12-27T18:55:22.642Z,67.97
2018-12-27T18:58:34.438Z,67.98
2018-12-27T19:01:11.329Z,67.96
2018-12-27T19:03:49.221Z,67.96
2018-12-27T19:06:32.527Z,67.83
2018-12-27T19:09:07.288Z,67.99
2018-12-27T19:12:19.041Z,68.06
2018-12-27T19:14:56.309Z,68.42
2018-12-27T19:17:49.636Z,68.42
2018-12-27T19:20:31.056Z,68.36
2018-12-27T19:23:28.893Z,68.49
2018-12-27T19:26:10.554Z,69.20
2018-12-27T19:28:43.957Z,69.04
2018-12-27T19:31:20.053Z,69.08
2018-12-27T19:33:51.747Z,69.08
2018-12-27T19:36:25.616Z,69.57
2018-12-27T19:39:02.492Z,69.73
2018-12-27T19:41:41.724Z,69.94
2018-12-27T19:44:15.656Z,70.16
2018-12-27T19:46:48.295Z,71.16
2018-12-27T19:49:21.571Z,71.16
2018-12-27T19:51:51.939Z,70.82
2018-12-27T19:54:24.125Z,71.42
2018-12-27T19:57:37.470Z,71.42
2018-12-27T20:00:09.138Z,70.82
2018-12-27T20:02:44.443Z,70.82
2018-12-27T20:05:15.701Z,71.54
2018-12-27T20:08:07.788Z,71.54
2018-12-27T20:11:11.232Z,71.74
2018-12-27T20:16:55.013Z,71.93
2018-12-27T20:19:25.568Z,72.03
2018-12-27T20:22:04.204Z,72.14
2018-12-27T20:24:41.464Z,72.23
2018-12-27T20:27:13.323Z,72.27
2018-12-27T20:33:13.035Z,72.35
2018-12-27T20:35:44.177Z,72.64
2018-12-27T20:38:15.493Z,72.94
2018-12-27T20:40:49.644Z,73.16
2018-12-27T20:43:23.957Z,73.48
2018-12-27T20:45:54.918Z,73.69
2018-12-27T20:49:04.923Z,73.82
2018-12-27T20:51:35.259Z,73.76
2018-12-27T20:54:09.442Z,73.77
2018-12-27T20:56:49.617Z,73.69
2018-12-27T20:59:28.180Z,73.76
2018-12-27T21:01:58.966Z,73.94
2018-12-27T21:04:34.262Z,73.99
2018-12-27T21:07:10.564Z,74.03
2018-12-27T21:10:03.311Z,74.19
2018-12-27T21:13:23.046Z,74.19
2018-12-27T21:15:55.671Z,74.19
2018-12-27T21:18:26.850Z,74.21
2018-12-27T21:20:59.831Z,74.13
2018-12-27T21:23:33.373Z,74.13
2018-12-27T21:26:03.904Z,74.21
2018-12-27T21:28:35.049Z,74.43
2018-12-27T21:31:44.344Z,74.62
2018-12-27T21:34:16.715Z,74.73
2018-12-27T21:36:54.639Z,74.58
2018-12-27T21:39:44.305Z,74.53
2018-12-27T21:42:14.718Z,74.22
2018-12-27T21:44:46.429Z,74.22
2018-12-27T21:47:17.895Z,74.07
2018-12-27T21:52:52.960Z,73.76
2018-12-27T21:55:42.996Z,74.03
2018-12-27T21:58:24.023Z,74.03
2018-12-27T22:01:05.916Z,73.91
2018-12-27T22:03:47.637Z,73.86
2018-12-27T22:06:31.863Z,73.77
2018-12-27T22:09:14.019Z,73.80
2018-12-27T22:11:55.956Z,73.93
2018-12-27T22:14:40.827Z,73.93
2018-12-27T22:17:25.294Z,73.88
2018-12-27T22:22:44.314Z,73.72
2018-12-27T22:25:15.952Z,73.56
2018-12-27T22:34:31.416Z,73.75
2018-12-27T22:37:20.797Z,73.95
2018-12-27T22:40:09.995Z,74.17
2018-12-27T22:43:22.897Z,74.31
2018-12-27T22:48:56.949Z,74.00
2018-12-27T22:51:26.948Z,74.11
2018-12-27T22:53:57.529Z,74.02
2018-12-27T22:56:32.350Z,73.93
2018-12-27T22:59:06.550Z,73.89
2018-12-27T23:01:38.024Z,73.88
2018-12-27T23:07:48.500Z,74.06
2018-12-27T23:10:32.683Z,74.13
2018-12-27T23:19:45.137Z,74.04
2018-12-27T23:22:38.834Z,74.01
2018-12-27T23:25:32.808Z,73.86
2018-12-27T23:28:21.954Z,73.67
2018-12-27T23:30:52.681Z,73.59
2018-12-27T23:33:22.916Z,73.45
2018-12-27T23:35:56.008Z,73.27
2018-12-27T23:38:35.500Z,73.17
2018-12-27T23:41:17.622Z,73.06
2018-12-27T23:43:47.717Z,73.00
2018-12-27T23:46:18.426Z,72.98
2018-12-27T23:48:48.893Z,73.04
2018-12-27T23:51:19.985Z,72.97
2018-12-27T23:53:49.983Z,73.03
2018-12-27T23:56:19.828Z,73.07
2018-12-27T23:58:50.123Z,73.03
